Terminal Aerodrome Forecast
Issued by NWS

Home | Current Version | Previous Version | Text Only | Print | Product List | Glossary On
Versions: 1 2 3 4 5 6 7 8 9 10 11 12 13 14 15 16 17 18 19 20 21
000
FTUS42 KFFC 300950 AAC
TAFPDK
TAF AMD
KPDK 300950Z 3010/0106 14005KT P6SM SCT011
     FM301100 14006KT P6SM BKN012
     FM301500 16010KT P6SM BKN035
     FM301800 16012G22KT P6SM BKN045
     FM302000 17012G22KT P6SM SCT050 SCT250
     FM010200 18010G18KT P6SM FEW050 BKN250=

USA.gov is the U.S. government's official web portal to all federal, state and local government web resources and services.